Time;durP1;ratioP1;P1;durP2;ratioP2;P2;SDS_P1;SDS_P2;PMS_P1;PMS_P2;Temp;Humidity;BMP_temperature;BMP_pressure;BME280_temperature;BME280_humidity;BME280_pressure;Samples;Min_cycle;Max_cycle;Signal;HPM_P1;HPM_P2
2023/04/04 00:01:34;;;;;;;2.30;2.10;;;;;;;4.81;89.13;92440.91;5007349;28;20041;-75
2023/04/04 00:03:59;;;;;;;2.50;2.30;;;;;;;4.70;87.95;92418.56;5007867;28;20040;-76
2023/04/04 00:06:25;;;;;;;2.45;2.20;;;;;;;4.84;87.89;92435.03;5008233;28;20462;-75
2023/04/04 00:08:50;;;;;;;1.83;1.73;;;;;;;4.93;87.10;92417.34;5008810;28;20100;-75
2023/04/04 00:11:15;;;;;;;2.40;1.70;;;;;;;5.07;86.11;92433.78;5005934;28;20094;-75
2023/04/04 00:13:41;;;;;;;2.05;1.85;;;;;;;5.35;85.82;92455.28;5004684;28;20026;-76
2023/04/04 00:16:06;;;;;;;2.17;1.92;;;;;;;5.06;85.80;92421.69;5006841;28;20495;-75
2023/04/04 00:18:32;;;;;;;2.40;2.20;;;;;;;4.88;85.70;92435.19;5008417;28;20033;-75
2023/04/04 00:20:58;;;;;;;2.60;2.40;;;;;;;4.72;86.46;92420.91;5008920;28;20128;-75
2023/04/04 00:23:23;;;;;;;2.30;2.10;;;;;;;5.09;87.24;92452.66;5004583;28;20120;-75
2023/04/04 00:25:53;;;;;;;2.72;2.53;;;;;;;5.00;87.01;92433.44;5006762;28;20518;-76
2023/04/04 00:28:19;;;;;;;2.85;2.65;;;;;;;4.65;86.84;92427.41;5008274;28;20108;-75
2023/04/04 00:30:45;;;;;;;3.00;2.80;;;;;;;4.70;88.33;92442.28;5007859;28;20453;-74
2023/04/04 00:33:11;;;;;;;2.95;2.75;;;;;;;4.53;88.61;92424.63;5007020;28;20034;-75
2023/04/04 00:35:37;;;;;;;4.05;3.65;;;;;;;4.72;88.92;92416.41;5007772;28;20558;-75
2023/04/04 00:38:06;;;;;;;4.07;3.78;;;;;;;5.04;87.68;92423.84;5006046;28;20052;-76
2023/04/04 00:40:32;;;;;;;4.45;4.05;;;;;;;4.81;88.62;92425.09;5008114;28;20029;-75
2023/04/04 00:42:59;;;;;;;5.00;4.25;;;;;;;5.09;87.92;92428.94;5009170;28;20080;-76
2023/04/04 00:45:26;;;;;;;4.22;3.92;;;;;;;4.92;88.65;92431.59;5006508;28;20037;-76
2023/04/04 00:47:54;;;;;;;4.30;3.90;;;;;;;4.97;88.13;92401.69;5005955;28;20331;-74
2023/04/04 00:50:19;;;;;;;5.28;4.78;;;;;;;4.85;89.27;92406.81;5005697;28;20033;-76
2023/04/04 00:52:45;;;;;;;5.55;4.63;;;;;;;4.50;89.77;92387.63;5002240;28;20472;-75
2023/04/04 00:55:10;;;;;;;5.10;4.65;;;;;;;4.41;90.85;92410.50;5007483;28;20087;-75
2023/04/04 00:57:36;;;;;;;5.47;4.97;;;;;;;4.34;91.09;92397.03;5008832;28;20750;-75
2023/04/04 01:00:06;;;;;;;5.43;4.93;;;;;;;4.52;91.11;92422.28;5006643;28;20038;-75
2023/04/04 01:02:32;;;;;;;5.82;5.20;;;;;;;4.78;90.99;92425.72;5012334;28;20038;-75
2023/04/04 01:04:57;;;;;;;5.93;5.32;;;;;;;5.12;89.37;92404.63;5007728;28;20026;-76
2023/04/04 01:07:23;;;;;;;5.88;5.15;;;;;;;5.03;88.31;92437.34;5007691;28;20029;-75
2023/04/04 01:09:49;;;;;;;5.97;5.30;;;;;;;5.22;88.23;92429.09;5007053;28;20045;-76
2023/04/04 01:12:15;;;;;;;5.60;5.00;;;;;;;5.16;87.03;92419.81;5003546;28;20231;-76
2023/04/04 01:14:40;;;;;;;5.47;4.95;;;;;;;5.71;86.57;92425.09;5005644;28;20038;-75
2023/04/04 01:17:06;;;;;;;5.30;4.47;;;;;;;5.81;84.52;92417.63;5005793;28;20105;-75
2023/04/04 01:19:35;;;;;;;5.18;4.68;;;;;;;6.11;83.95;92428.19;5006478;28;20115;-75
2023/04/04 01:22:02;;;;;;;5.15;4.65;;;;;;;6.32;82.91;92431.66;5004124;28;20038;-75
2023/04/04 01:24:32;;;;;;;5.13;4.63;;;;;;;6.14;83.29;92435.47;5007698;28;20029;-75
2023/04/04 01:26:59;;;;;;;5.10;4.57;;;;;;;5.65;84.18;92415.81;5006105;28;20060;-75
2023/04/04 01:29:25;;;;;;;5.65;4.30;;;;;;;6.02;84.65;92435.38;5005347;28;20033;-75
2023/04/04 01:31:58;;;;;;;5.35;4.63;;;;;;;6.00;83.91;92431.19;5005337;28;20032;-75
2023/04/04 01:34:36;;;;;;;4.82;4.40;;;;;;;6.34;83.65;92422.34;5007599;28;20322;-75
2023/04/04 01:37:20;;;;;;;4.03;3.63;;;;;;;6.73;81.57;92402.66;5004259;28;20528;-75
2023/04/04 01:39:53;;;;;;;2.78;2.58;;;;;;;6.91;79.33;92407.81;5005444;28;20046;-75
2023/04/04 01:42:19;;;;;;;3.10;2.80;;;;;;;7.20;78.48;92411.13;5006211;28;20030;-75
2023/04/04 01:44:45;;;;;;;3.00;2.63;;;;;;;7.35;77.21;92390.44;5003717;28;20184;-75
2023/04/04 01:47:13;;;;;;;2.42;2.22;;;;;;;7.58;76.33;92397.66;5003991;28;20153;-75
2023/04/04 01:49:39;;;;;;;2.83;2.42;;;;;;;7.23;76.15;92383.28;5005669;28;20021;-75
2023/04/04 01:52:06;;;;;;;3.88;3.47;;;;;;;7.25;76.32;92371.25;5006517;28;20036;-75
2023/04/04 01:54:32;;;;;;;4.80;3.03;;;;;;;7.23;75.95;92338.31;5004364;28;20124;-76
2023/04/04 01:56:58;;;;;;;3.22;2.10;;;;;;;7.54;75.35;92361.63;5006205;28;20037;-75
2023/04/04 01:59:23;;;;;;;2.17;1.98;;;;;;;7.85;74.34;92374.38;5005564;28;20072;-77
2023/04/04 02:01:49;;;;;;;4.32;2.10;;;;;;;7.89;73.72;92372.59;5005170;28;20100;-76
2023/04/04 02:04:14;;;;;;;2.50;2.03;;;;;;;7.99;72.78;92382.75;5005897;28;20029;-75
2023/04/04 02:06:40;;;;;;;3.38;2.22;;;;;;;8.02;72.52;92387.41;5005799;28;20041;-75
2023/04/04 02:09:06;;;;;;;2.17;1.70;;;;;;;7.96;71.98;92370.19;5004524;28;20052;-75
2023/04/04 02:11:32;;;;;;;1.50;1.40;;;;;;;7.94;71.27;92375.03;5012941;28;20497;-75
2023/04/04 02:13:57;;;;;;;1.30;1.20;;;;;;;7.97;71.74;92387.63;5006137;28;20037;-75
2023/04/04 02:16:22;;;;;;;1.17;1.05;;;;;;;8.07;70.58;92377.34;5005455;28;20029;-75
2023/04/04 02:18:48;;;;;;;2.42;1.10;;;;;;;7.86;71.25;92381.97;5002802;28;20033;-76
2023/04/04 02:21:14;;;;;;;1.30;1.17;;;;;;;8.07;70.69;92384.53;5005298;28;20083;-76
2023/04/04 02:23:39;;;;;;;1.73;1.20;;;;;;;7.98;70.53;92347.56;5004196;28;20535;-75
2023/04/04 02:26:05;;;;;;;1.77;1.20;;;;;;;8.05;70.37;92347.00;5006527;28;20171;-75
2023/04/04 02:28:30;;;;;;;1.77;1.27;;;;;;;8.04;70.47;92359.47;5003104;28;20017;-75
2023/04/04 02:31:01;;;;;;;1.30;1.20;;;;;;;8.05;70.28;92352.31;5004813;28;20466;-75
2023/04/04 02:33:26;;;;;;;1.17;1.08;;;;;;;8.10;70.58;92362.69;5003564;28;20033;-75
2023/04/04 02:35:52;;;;;;;2.35;1.42;;;;;;;7.99;70.57;92361.56;5006411;28;20042;-75
2023/04/04 02:38:17;;;;;;;8.60;5.10;;;;;;;7.43;72.91;92371.88;5004356;28;20029;-75
2023/04/04 02:40:44;;;;;;;6.05;3.50;;;;;;;7.71;71.62;92350.84;5004416;28;20041;-75
2023/04/04 02:43:10;;;;;;;5.82;3.20;;;;;;;8.03;71.17;92379.09;5005744;28;20049;-75
2023/04/04 02:45:36;;;;;;;4.32;3.00;;;;;;;7.92;70.47;92345.47;5006507;28;20750;-75
2023/04/04 02:48:02;;;;;;;2.80;2.08;;;;;;;7.98;70.86;92360.03;5002295;28;20168;-76
2023/04/04 02:50:28;;;;;;;2.88;2.55;;;;;;;8.12;70.59;92369.16;5004245;28;20334;-76
2023/04/04 02:53:01;;;;;;;3.92;2.53;;;;;;;8.12;70.44;92382.41;5002710;28;20401;-75
2023/04/04 02:55:26;;;;;;;3.22;1.52;;;;;;;8.23;70.10;92382.75;5007214;28;20129;-76
2023/04/04 02:57:51;;;;;;;1.70;1.60;;;;;;;8.22;69.46;92367.94;5004159;28;20580;-75
2023/04/04 03:00:17;;;;;;;2.55;1.52;;;;;;;8.10;69.41;92381.22;5003969;28;20038;-75
2023/04/04 03:02:43;;;;;;;2.47;1.52;;;;;;;7.96;69.57;92354.31;5006170;28;20588;-74
2023/04/04 03:05:08;;;;;;;1.27;1.17;;;;;;;8.07;69.14;92384.53;5004291;28;20663;-75
2023/04/04 03:07:34;;;;;;;4.38;1.90;;;;;;;7.80;69.72;92353.41;5005295;28;20029;-75
2023/04/04 03:09:59;;;;;;;5.90;3.28;;;;;;;7.97;70.50;92396.31;5004123;28;20393;-75
2023/04/04 03:12:26;;;;;;;4.00;3.53;;;;;;;7.74;72.04;92387.25;5010262;28;20037;-76
2023/04/04 03:14:52;;;;;;;6.32;4.72;;;;;;;7.62;72.99;92395.94;5008074;28;20065;-75
2023/04/04 03:17:17;;;;;;;7.13;4.32;;;;;;;7.80;71.75;92401.03;5007524;28;20030;-75
2023/04/04 03:19:42;;;;;;;5.25;4.70;;;;;;;7.36;72.90;92376.13;5008322;28;20268;-75
2023/04/04 03:22:08;;;;;;;4.53;2.90;;;;;;;7.06;74.09;92359.63;5010372;28;20030;-75
2023/04/04 03:24:34;;;;;;;5.28;3.30;;;;;;;7.38;73.87;92406.47;5009095;28;20073;-75
2023/04/04 03:27:00;;;;;;;3.15;2.85;;;;;;;7.38;73.37;92384.53;5008937;28;20045;-75
2023/04/04 03:29:26;;;;;;;7.10;4.40;;;;;;;7.58;72.75;92400.31;5007897;28;20095;-76
2023/04/04 03:31:52;;;;;;;4.13;3.50;;;;;;;7.53;72.62;92384.66;5014512;28;20108;-75
2023/04/04 03:34:17;;;;;;;4.20;3.55;;;;;;;7.41;72.35;92363.47;5010008;28;20509;-77
2023/04/04 03:36:45;;;;;;;4.93;4.07;;;;;;;7.46;72.67;92387.06;5006849;28;20045;-76
2023/04/04 03:39:11;;;;;;;5.55;5.05;;;;;;;7.27;73.94;92397.38;5008454;28;20519;-75
2023/04/04 03:41:36;;;;;;;3.33;2.65;;;;;;;7.36;73.09;92366.31;5006842;28;20049;-76
2023/04/04 03:44:04;;;;;;;2.90;2.40;;;;;;;7.56;72.21;92386.66;5009388;28;20399;-76
2023/04/04 03:46:29;;;;;;;3.85;3.45;;;;;;;6.97;74.98;92407.28;5007610;28;20036;-76
2023/04/04 03:48:55;;;;;;;6.05;4.32;;;;;;;6.72;76.27;92368.63;5008590;28;20507;-76
2023/04/04 03:51:27;;;;;;;4.75;4.25;;;;;;;7.32;74.90;92399.03;5008835;28;20050;-76
2023/04/04 03:53:52;;;;;;;5.63;5.10;;;;;;;7.36;74.49;92395.41;5013461;28;20034;-76
2023/04/04 03:56:18;;;;;;;8.05;6.63;;;;;;;7.28;74.32;92407.63;5008592;28;20526;-76
2023/04/04 03:58:44;;;;;;;6.78;5.32;;;;;;;6.96;75.80;92400.44;5006238;28;20022;-76
2023/04/04 04:01:10;;;;;;;6.63;5.43;;;;;;;7.28;74.70;92402.34;5008695;28;20058;-76
2023/04/04 04:03:36;;;;;;;11.90;7.90;;;;;;;7.33;74.36;92398.72;5006070;28;20040;-76
2023/04/04 04:06:01;;;;;;;8.40;5.40;;;;;;;7.56;73.55;92394.59;5010185;28;20041;-76
2023/04/04 04:08:27;;;;;;;6.07;3.58;;;;;;;7.73;72.61;92396.28;5005071;28;20045;-75
2023/04/04 04:10:53;;;;;;;5.70;3.90;;;;;;;7.91;71.52;92402.94;5008923;28;20051;-76
2023/04/04 04:13:20;;;;;;;6.18;4.22;;;;;;;7.94;70.45;92406.78;5006676;28;20491;-75
2023/04/04 04:15:45;;;;;;;6.32;3.50;;;;;;;7.76;71.27;92394.88;5008846;28;20045;-76
2023/04/04 04:18:11;;;;;;;4.90;4.38;;;;;;;7.67;71.45;92387.78;5006139;28;20364;-76
2023/04/04 04:20:36;;;;;;;7.88;4.60;;;;;;;7.69;71.59;92400.66;5006468;28;20558;-76
2023/04/04 04:23:01;;;;;;;7.60;4.28;;;;;;;7.63;71.69;92397.44;5007201;28;20080;-75
2023/04/04 04:25:27;;;;;;;5.35;4.15;;;;;;;7.73;71.93;92406.88;5007436;28;20034;-76
2023/04/04 04:27:56;;;;;;;5.00;4.43;;;;;;;7.53;72.00;92382.00;5007817;28;20075;-76
2023/04/04 04:30:22;;;;;;;4.93;4.30;;;;;;;7.80;71.92;92415.06;5006545;28;20037;-76
2023/04/04 04:32:49;;;;;;;5.28;4.00;;;;;;;7.83;71.90;92417.03;5009013;28;22617;-76
2023/04/04 04:35:14;;;;;;;6.32;3.90;;;;;;;7.91;71.07;92404.81;5005800;28;20042;-76
2023/04/04 04:37:40;;;;;;;6.53;4.03;;;;;;;7.98;70.78;92402.38;5006992;28;20132;-76
2023/04/04 04:40:06;;;;;;;8.32;4.85;;;;;;;8.15;70.34;92426.00;5008133;28;20025;-75
2023/04/04 04:42:31;;;;;;;6.70;4.60;;;;;;;8.02;71.07;92427.84;5004975;28;20041;-76
2023/04/04 04:44:57;;;;;;;5.72;4.32;;;;;;;8.04;70.16;92427.53;5006483;28;20030;-75
2023/04/04 04:47:22;;;;;;;6.78;3.60;;;;;;;8.04;70.40;92420.38;5006336;28;20124;-77
2023/04/04 04:49:48;;;;;;;8.65;5.22;;;;;;;8.05;70.76;92421.91;5006057;28;20498;-77
2023/04/04 04:52:14;;;;;;;10.02;6.22;;;;;;;7.96;71.33;92431.06;5007248;28;20030;-75
2023/04/04 04:54:39;;;;;;;4.70;4.10;;;;;;;8.08;71.04;92450.38;5009295;28;20443;-75
2023/04/04 04:57:05;;;;;;;4.97;3.80;;;;;;;7.95;69.99;92424.22;5007014;28;20037;-75
2023/04/04 04:59:30;;;;;;;7.38;5.32;;;;;;;8.01;71.17;92444.09;5007488;28;20471;-75
2023/04/04 05:01:56;;;;;;;3.47;3.17;;;;;;;7.95;71.66;92437.47;5006687;28;20026;-76
2023/04/04 05:04:21;;;;;;;3.50;3.20;;;;;;;7.63;71.58;92409.94;5008367;28;20030;-76
2023/04/04 05:06:47;;;;;;;11.00;4.20;;;;;;;7.18;74.80;92431.06;5005883;28;20452;-77
2023/04/04 05:09:13;;;;;;;7.47;5.07;;;;;;;7.26;76.15;92462.72;5007391;28;20124;-75
2023/04/04 05:11:38;;;;;;;6.28;5.20;;;;;;;7.51;75.37;92463.56;5004795;28;20075;-76
2023/04/04 05:14:05;;;;;;;4.95;4.40;;;;;;;7.67;74.18;92446.00;5006843;28;20496;-76
2023/04/04 05:16:31;;;;;;;6.30;4.65;;;;;;;8.01;73.08;92470.56;5007128;28;20033;-76
2023/04/04 05:18:56;;;;;;;9.82;7.00;;;;;;;7.90;72.53;92450.91;5004217;28;20029;-75
2023/04/04 05:21:22;;;;;;;7.90;6.60;;;;;;;7.96;73.61;92468.13;5004455;28;20030;-76
2023/04/04 05:23:47;;;;;;;10.60;6.47;;;;;;;8.01;73.32;92454.69;5006945;28;20673;-76
2023/04/04 05:26:13;;;;;;;7.47;6.65;;;;;;;8.21;72.83;92472.38;5004636;28;20522;-76
2023/04/04 05:28:39;;;;;;;9.88;6.35;;;;;;;8.28;71.99;92461.19;5007990;28;20049;-76
2023/04/04 05:31:05;;;;;;;6.30;5.70;;;;;;;8.14;71.97;92448.28;5005653;28;20119;-76
2023/04/04 05:33:31;;;;;;;10.10;6.63;;;;;;;8.37;71.94;92473.22;5005929;28;20481;-76
2023/04/04 05:35:58;;;;;;;8.48;7.53;;;;;;;8.16;73.45;92480.53;5008021;28;20578;-76
2023/04/04 05:38:23;;;;;;;16.08;10.20;;;;;;;8.15;73.73;92460.44;5005735;28;20685;-76
2023/04/04 05:40:49;;;;;;;8.93;7.97;;;;;;;8.32;73.78;92470.81;5007436;28;20525;-76
2023/04/04 05:43:14;;;;;;;16.00;11.32;;;;;;;8.52;72.06;92469.91;5006467;28;20030;-76
2023/04/04 05:45:40;;;;;;;15.88;14.25;;;;;;;8.11;73.08;92476.22;5005136;28;20081;-76
2023/04/04 05:48:05;;;;;;;13.90;11.00;;;;;;;8.29;73.13;92476.78;5005469;28;20029;-75
2023/04/04 05:50:31;;;;;;;13.15;9.93;;;;;;;8.42;71.75;92470.38;5006097;28;20100;-77
2023/04/04 05:52:56;;;;;;;13.00;10.93;;;;;;;8.66;71.89;92490.78;5006578;28;20022;-75
2023/04/04 05:55:22;;;;;;;14.07;10.30;;;;;;;8.65;71.58;92467.28;5007053;28;20502;-77
2023/04/04 05:57:48;;;;;;;13.48;10.38;;;;;;;8.68;71.13;92485.16;5007004;28;20096;-76
2023/04/04 06:00:14;;;;;;;12.15;10.02;;;;;;;8.62;72.27;92487.25;5004338;28;20059;-76
2023/04/04 06:02:40;;;;;;;11.00;9.85;;;;;;;8.76;71.33;92490.34;5005703;28;20045;-76
2023/04/04 06:05:06;;;;;;;11.70;9.27;;;;;;;8.63;70.86;92485.38;5004074;28;20026;-75
2023/04/04 06:07:32;;;;;;;16.40;11.70;;;;;;;8.66;73.23;92497.97;5006734;28;20029;-76
2023/04/04 06:09:57;;;;;;;19.05;13.35;;;;;;;8.12;74.48;92471.66;5004420;28;20065;-75
2023/04/04 06:12:23;;;;;;;15.43;11.65;;;;;;;8.21;75.74;92480.31;5006151;28;20473;-75
2023/04/04 06:14:48;;;;;;;12.10;10.85;;;;;;;8.52;75.12;92498.28;5005597;28;20042;-76
2023/04/04 06:17:13;;;;;;;18.50;15.02;;;;;;;8.43;74.13;92497.63;5005200;28;20103;-75
2023/04/04 06:19:39;;;;;;;9.73;7.13;;;;;;;8.56;72.55;92504.47;5004750;28;20026;-76
2023/04/04 06:22:04;;;;;;;8.57;6.30;;;;;;;8.82;72.47;92504.13;5003733;28;20046;-76
2023/04/04 06:24:30;;;;;;;8.15;6.03;;;;;;;8.95;71.31;92503.03;5006508;28;20156;-76
2023/04/04 06:26:55;;;;;;;7.32;5.72;;;;;;;8.96;69.93;92493.94;5003422;28;20041;-76
2023/04/04 06:29:21;;;;;;;8.40;6.45;;;;;;;8.90;70.77;92497.97;5004208;28;20064;-77
2023/04/04 06:31:48;;;;;;;8.27;6.30;;;;;;;8.92;70.84;92506.34;5005653;28;20056;-76
2023/04/04 06:34:13;;;;;;;8.80;7.32;;;;;;;8.63;71.03;92498.63;5007477;28;20639;-75
2023/04/04 06:36:39;;;;;;;9.45;5.78;;;;;;;8.77;70.28;92513.09;5004770;28;20125;-76
2023/04/04 06:39:04;;;;;;;8.23;6.22;;;;;;;8.87;70.73;92536.50;5005033;28;20029;-75
2023/04/04 06:41:29;;;;;;;8.25;6.90;;;;;;;8.68;70.79;92509.00;5003588;28;20042;-76
2023/04/04 06:43:55;;;;;;;2.88;2.58;;;;;;;8.35;68.74;92525.78;5005299;28;20022;-76
2023/04/04 06:46:20;;;;;;;2.65;2.45;;;;;;;7.80;70.12;92530.72;5005693;28;20916;-76
2023/04/04 06:48:46;;;;;;;2.20;2.00;;;;;;;7.58;70.30;92543.19;5009270;28;20045;-76
2023/04/04 06:51:12;;;;;;;2.15;1.95;;;;;;;7.11;71.10;92523.34;5005915;28;20043;-76
2023/04/04 06:53:37;;;;;;;1.83;1.67;;;;;;;7.14;70.89;92543.84;5007501;28;20046;-75
2023/04/04 06:56:03;;;;;;;2.15;1.17;;;;;;;7.14;70.04;92575.59;5007748;28;20046;-76
2023/04/04 06:58:29;;;;;;;2.92;1.15;;;;;;;6.77;68.69;92572.66;5010687;28;20037;-76
2023/04/04 07:00:55;;;;;;;2.63;1.05;;;;;;;6.68;68.92;92564.00;5008862;28;20038;-76
2023/04/04 07:03:22;;;;;;;1.10;1.00;;;;;;;6.55;68.71;92586.16;5007607;28;20054;-76
2023/04/04 07:05:48;;;;;;;1.60;1.50;;;;;;;6.49;69.20;92591.91;5008199;28;20504;-77
2023/04/04 07:08:13;;;;;;;2.00;1.60;;;;;;;6.58;68.92;92611.13;5006829;28;20068;-76
2023/04/04 07:10:39;;;;;;;2.85;1.65;;;;;;;6.41;68.71;92596.91;5009867;28;20037;-75
2023/04/04 07:13:04;;;;;;;2.88;1.27;;;;;;;6.38;68.37;92617.88;5007722;28;20040;-75
2023/04/04 07:15:29;;;;;;;1.48;1.38;;;;;;;6.31;69.18;92622.88;5007757;28;20151;-76
2023/04/04 07:17:55;;;;;;;4.05;1.45;;;;;;;6.26;70.13;92623.06;5007508;28;20484;-75
2023/04/04 07:20:21;;;;;;;1.30;1.20;;;;;;;5.71;67.46;92589.41;5007131;28;20103;-76
2023/04/04 07:22:47;;;;;;;0.90;0.90;;;;;;;5.84;68.73;92641.22;5007953;28;20040;-75
2023/04/04 07:25:13;;;;;;;1.17;0.95;;;;;;;5.68;67.73;92636.72;5009945;28;20064;-77
2023/04/04 07:27:39;;;;;;;1.05;0.90;;;;;;;5.33;68.14;92651.78;5007051;28;20492;-75
2023/04/04 07:30:07;;;;;;;1.00;0.90;;;;;;;5.11;69.64;92669.22;5007697;28;20071;-75
2023/04/04 07:32:32;;;;;;;0.98;0.98;;;;;;;5.16;68.95;92676.22;5016491;28;20034;-76
2023/04/04 07:34:57;;;;;;;2.40;0.90;;;;;;;4.96;68.70;92658.34;4999523;28;20123;-75
2023/04/04 07:37:25;;;;;;;2.25;0.90;;;;;;;4.71;69.32;92678.22;5010526;28;20856;-75
2023/04/04 07:39:51;;;;;;;1.15;1.05;;;;;;;4.73;69.51;92670.03;5007951;28;20111;-76
2023/04/04 07:42:21;;;;;;;1.00;1.00;;;;;;;4.70;68.62;92679.31;5008397;28;20385;-76
2023/04/04 07:44:48;;;;;;;0.90;0.90;;;;;;;4.37;68.74;92662.25;5006485;28;20508;-76
2023/04/04 07:47:13;;;;;;;1.10;1.00;;;;;;;4.24;69.28;92690.97;5009585;28;20497;-75
2023/04/04 07:49:38;;;;;;;1.27;0.85;;;;;;;4.00;70.02;92666.81;5007335;28;20035;-75
2023/04/04 07:52:04;;;;;;;1.17;1.08;;;;;;;3.90;70.69;92677.59;5007855;28;20161;-76
2023/04/04 07:54:30;;;;;;;1.77;1.30;;;;;;;3.96;71.48;92692.19;5007792;28;20033;-75
2023/04/04 07:56:55;;;;;;;1.00;0.90;;;;;;;3.91;71.79;92692.28;5006802;28;20821;-76
2023/04/04 07:59:20;;;;;;;2.50;1.20;;;;;;;4.18;70.92;92710.59;5016251;28;20087;-76
2023/04/04 08:01:46;;;;;;;3.10;1.00;;;;;;;4.13;69.36;92713.34;5007650;28;20057;-77
2023/04/04 08:04:12;;;;;;;2.90;1.10;;;;;;;4.12;69.75;92711.78;5008179;28;20025;-75
2023/04/04 08:06:38;;;;;;;1.98;1.13;;;;;;;4.09;69.70;92715.00;5005965;28;20064;-76
2023/04/04 08:09:04;;;;;;;1.05;1.00;;;;;;;4.26;69.70;92715.13;5006653;28;20665;-75
2023/04/04 08:11:29;;;;;;;3.63;1.20;;;;;;;4.36;68.61;92719.38;5006784;28;20442;-76
2023/04/04 08:13:54;;;;;;;1.17;1.13;;;;;;;4.26;69.05;92709.06;5008709;28;20026;-75
2023/04/04 08:16:20;;;;;;;2.55;1.65;;;;;;;4.06;68.96;92718.22;5006532;28;20414;-78
2023/04/04 08:18:45;;;;;;;1.23;1.13;;;;;;;4.20;70.46;92732.13;5007926;28;20030;-76
2023/04/04 08:21:11;;;;;;;1.10;0.98;;;;;;;4.32;69.82;92712.41;5009277;28;20562;-75
2023/04/04 08:23:36;;;;;;;1.17;1.00;;;;;;;4.50;68.12;92721.97;5005883;28;20042;-75
2023/04/04 08:26:02;;;;;;;1.45;1.00;;;;;;;4.45;66.97;92728.16;5007195;28;20037;-75
2023/04/04 08:28:27;;;;;;;1.33;1.23;;;;;;;4.29;66.72;92745.34;5006504;28;20033;-75
2023/04/04 08:30:54;;;;;;;3.42;1.70;;;;;;;4.22;65.96;92748.38;5006933;28;20491;-75
2023/04/04 08:33:24;;;;;;;4.68;1.75;;;;;;;3.84;66.54;92760.31;5006634;28;20072;-75
2023/04/04 08:35:50;;;;;;;1.40;1.30;;;;;;;3.99;66.83;92762.59;5009656;28;20037;-76
2023/04/04 08:38:15;;;;;;;2.15;1.42;;;;;;;3.88;67.37;92758.63;5006938;28;20037;-75
2023/04/04 08:40:45;;;;;;;1.20;1.10;;;;;;;3.78;67.96;92748.31;5010058;28;20025;-77
2023/04/04 08:43:12;;;;;;;1.20;1.10;;;;;;;3.76;67.03;92753.13;5004307;28;20160;-75
2023/04/04 08:45:40;;;;;;;1.70;1.33;;;;;;;3.82;68.02;92770.31;5005317;28;20614;-77
2023/04/04 08:48:07;;;;;;;1.77;1.52;;;;;;;3.91;68.16;92771.22;5007876;28;20041;-75
2023/04/04 08:50:36;;;;;;;2.40;2.08;;;;;;;3.87;67.64;92764.97;5006097;28;20033;-76
2023/04/04 08:53:04;;;;;;;1.33;1.23;;;;;;;3.72;66.58;92765.31;5007725;28;20499;-75
2023/04/04 08:55:30;;;;;;;1.65;1.20;;;;;;;3.33;67.02;92750.84;5004312;28;20484;-75
2023/04/04 08:57:56;;;;;;;1.83;1.30;;;;;;;3.50;68.02;92786.25;5022771;28;20037;-75
2023/04/04 09:00:22;;;;;;;1.50;1.30;;;;;;;3.25;68.33;92775.19;5005396;28;20044;-75
2023/04/04 09:02:56;;;;;;;1.20;1.10;;;;;;;3.08;68.09;92787.34;5007180;28;20038;-76
2023/04/04 09:05:23;;;;;;;1.17;1.08;;;;;;;2.99;68.32;92778.59;5004195;28;20052;-75
2023/04/04 09:07:50;;;;;;;1.35;1.13;;;;;;;2.78;68.32;92728.28;5007678;28;20747;-76
2023/04/04 09:10:15;;;;;;;1.20;1.10;;;;;;;2.92;67.12;92744.81;5004132;28;20457;-76
2023/04/04 09:12:44;;;;;;;2.10;2.00;;;;;;;3.04;68.10;92784.50;5007107;28;20504;-75
2023/04/04 09:15:10;;;;;;;1.27;1.17;;;;;;;3.11;68.00;92789.38;5005571;28;20096;-76
2023/04/04 09:17:36;;;;;;;1.50;1.38;;;;;;;3.23;67.50;92779.94;5005996;28;20125;-75
2023/04/04 09:20:05;;;;;;;1.48;1.38;;;;;;;3.23;68.21;92793.06;5004843;28;20166;-75
2023/04/04 09:22:31;;;;;;;1.40;1.30;;;;;;;3.37;67.76;92782.59;5014790;28;20048;-75
2023/04/04 09:24:57;;;;;;;3.10;1.75;;;;;;;3.24;68.41;92763.09;5004023;28;20037;-76
2023/04/04 09:27:22;;;;;;;1.73;1.63;;;;;;;3.62;68.24;92791.81;5007242;28;20152;-76
2023/04/04 09:29:48;;;;;;;3.75;2.15;;;;;;;3.43;68.48;92744.59;5005201;28;21247;-77
2023/04/04 09:32:15;;;;;;;1.42;1.25;;;;;;;3.68;66.04;92798.50;5006786;28;20057;-75
2023/04/04 09:34:42;;;;;;;2.45;2.13;;;;;;;3.47;66.63;92807.88;5006167;28;20025;-75
2023/04/04 09:37:08;;;;;;;1.60;1.50;;;;;;;3.31;65.57;92802.91;5004192;28;20105;-75
2023/04/04 09:39:34;;;;;;;3.55;2.22;;;;;;;3.18;67.32;92810.81;4990303;28;20144;-76
2023/04/04 09:42:00;;;;;;;2.63;1.73;;;;;;;3.28;67.90;92795.59;4995799;28;20041;-75
2023/04/04 09:44:28;;;;;;;1.90;1.60;;;;;;;3.16;67.59;92786.66;5006438;28;20476;-76
2023/04/04 09:47:06;;;;;;;1.60;1.45;;;;;;;3.19;67.07;92802.63;5014078;28;20287;-75
2023/04/04 09:49:31;;;;;;;1.77;1.55;;;;;;;3.08;68.19;92810.97;5005038;28;20096;-75
2023/04/04 09:51:57;;;;;;;1.60;1.50;;;;;;;2.99;68.52;92818.72;5005189;28;20035;-75
2023/04/04 09:54:23;;;;;;;2.00;1.70;;;;;;;2.80;68.58;92815.41;5007264;28;20061;-75
2023/04/04 09:56:49;;;;;;;1.73;1.35;;;;;;;2.62;67.87;92803.88;5005446;28;20244;-76
2023/04/04 09:59:16;;;;;;;1.65;1.40;;;;;;;2.51;68.47;92807.72;5003604;28;20563;-76
2023/04/04 10:01:44;;;;;;;1.50;1.40;;;;;;;2.46;69.51;92795.47;5006639;28;20032;-76
2023/04/04 10:04:10;;;;;;;1.40;1.30;;;;;;;2.59;70.21;92808.94;5005337;28;20026;-76
2023/04/04 10:06:36;;;;;;;1.40;1.30;;;;;;;2.46;70.57;92777.09;5004687;28;20059;-76
2023/04/04 10:09:02;;;;;;;1.77;1.67;;;;;;;2.65;72.70;92782.31;5001801;28;20685;-75
2023/04/04 10:11:32;;;;;;;2.20;1.83;;;;;;;2.63;71.47;92789.69;4982324;28;20637;-75
2023/04/04 10:13:59;;;;;;;2.60;1.38;;;;;;;2.73;71.51;92792.16;4986214;28;20022;-75
2023/04/04 10:16:25;;;;;;;1.88;1.70;;;;;;;2.78;71.04;92820.94;4984804;28;20603;-75
2023/04/04 10:18:52;;;;;;;3.17;2.67;;;;;;;2.68;70.70;92781.75;4985917;28;20597;-74
2023/04/04 10:21:18;;;;;;;3.08;1.90;;;;;;;2.99;69.44;92818.72;4986764;28;20034;-75
2023/04/04 10:23:48;;;;;;;1.50;1.40;;;;;;;2.96;69.99;92808.81;4985465;28;20053;-75
2023/04/04 10:26:14;;;;;;;2.83;2.00;;;;;;;2.97;69.01;92789.38;4986195;28;20227;-75
2023/04/04 10:28:41;;;;;;;2.65;2.00;;;;;;;3.28;67.33;92827.13;4986117;28;20057;-75
2023/04/04 10:31:21;;;;;;;1.58;1.35;;;;;;;3.29;66.56;92831.31;4986829;28;20043;-75
2023/04/04 10:34:11;;;;;;;1.63;1.50;;;;;;;3.32;66.89;92837.88;4986441;28;20057;-75
2023/04/04 10:36:45;;;;;;;1.63;1.52;;;;;;;3.11;66.65;92821.69;4985667;28;20041;-75
2023/04/04 10:39:17;;;;;;;1.80;1.70;;;;;;;3.31;67.58;92852.84;4986488;28;20125;-75
2023/04/04 10:41:49;;;;;;;1.60;1.50;;;;;;;3.12;65.15;92817.22;4986802;28;20030;-75
2023/04/04 10:44:23;;;;;;;3.72;1.58;;;;;;;3.35;64.80;92853.81;4985145;28;20106;-75
2023/04/04 10:46:52;;;;;;;1.52;1.38;;;;;;;2.99;65.12;92818.72;4985598;28;20029;-76
2023/04/04 10:49:20;;;;;;;1.50;1.40;;;;;;;3.29;64.60;92854.19;4984744;28;20031;-75
2023/04/04 10:51:46;;;;;;;3.72;2.65;;;;;;;3.23;63.39;92858.75;4993373;28;20065;-75
2023/04/04 10:54:12;;;;;;;1.58;1.48;;;;;;;3.13;64.03;92861.59;4985013;28;20717;-76
2023/04/04 10:56:38;;;;;;;1.85;1.65;;;;;;;3.21;64.74;92850.41;4985842;28;20044;-76
2023/04/04 10:59:15;;;;;;;2.63;1.92;;;;;;;3.26;63.22;92858.19;4985796;28;20038;-75
2023/04/04 11:01:59;;;;;;;5.15;2.30;;;;;;;3.36;62.91;92870.38;4986109;28;20030;-75
2023/04/04 11:04:37;;;;;;;8.23;1.95;;;;;;;2.93;63.46;92867.19;4993908;28;20022;-74
2023/04/04 11:07:09;;;;;;;3.38;2.33;;;;;;;2.97;64.24;92865.53;4983615;28;20048;-76
2023/04/04 11:09:50;;;;;;;2.85;2.30;;;;;;;3.18;63.90;92869.38;4985925;28;20054;-75
2023/04/04 11:12:20;;;;;;;2.95;2.28;;;;;;;3.23;63.70;92861.38;4999849;28;20125;-74
2023/04/04 11:15:01;;;;;;;3.38;3.08;;;;;;;3.36;64.16;92876.41;4986178;28;20045;-75
2023/04/04 11:17:48;;;;;;;6.07;3.25;;;;;;;3.35;64.39;92874.84;4987019;28;20033;-76
2023/04/04 11:20:16;;;;;;;2.72;2.53;;;;;;;3.15;63.31;92863.91;4992715;28;20034;-76
2023/04/04 11:22:42;;;;;;;2.88;2.40;;;;;;;3.03;63.86;92866.25;4985093;28;20032;-74
2023/04/04 11:25:23;;;;;;;2.50;2.30;;;;;;;3.28;62.14;92907.84;4984207;28;20062;-75
2023/04/04 11:27:52;;;;;;;2.33;2.10;;;;;;;2.98;62.16;92888.13;4985957;28;20041;-76
2023/04/04 11:30:18;;;;;;;3.45;2.65;;;;;;;3.15;62.53;92903.31;4984736;28;20045;-76
2023/04/04 11:32:47;;;;;;;4.30;2.33;;;;;;;3.03;62.40;92861.75;4988897;28;20046;-75
2023/04/04 11:35:14;;;;;;;2.90;2.63;;;;;;;3.33;61.73;92879.59;4989258;28;20118;-76
2023/04/04 11:37:52;;;;;;;2.92;2.70;;;;;;;3.46;60.55;92890.44;4986925;28;20067;-76
2023/04/04 11:40:18;;;;;;;4.53;2.58;;;;;;;3.04;62.44;92868.56;4997699;28;20373;-74